Time;durP1;ratioP1;P1;durP2;ratioP2;P2;SDS_P1;SDS_P2;PMS_P1;PMS_P2;Temp;Humidity;BMP_temperature;BMP_pressure;BME280_temperature;BME280_humidity;BME280_pressure;Samples;Min_cycle;Max_cycle;Signal;HPM_P1;HPM_P2
2023/02/04 00:01:33;;;;;;;6.32;4.30;;;11.10;1.00;;;;;;5025656;28;20520;-50
2023/02/04 00:03:59;;;;;;;7.05;4.55;;;11.00;1.00;;;;;;5033225;28;20030;-52
2023/02/04 00:06:24;;;;;;;11.05;4.75;;;10.90;1.00;;;;;;5027850;28;20505;-48
2023/02/04 00:08:50;;;;;;;9.32;4.40;;;10.90;1.00;;;;;;5030581;28;20383;-48
2023/02/04 00:11:16;;;;;;;7.32;4.60;;;10.90;1.00;;;;;;5032849;28;20026;-49
2023/02/04 00:13:41;;;;;;;6.90;4.15;;;10.90;1.00;;;;;;5030495;28;20367;-50
2023/02/04 00:16:07;;;;;;;8.27;4.47;;;10.90;1.00;;;;;;5050961;28;20455;-49
2023/02/04 00:18:33;;;;;;;9.25;4.80;;;10.90;1.00;;;;;;5049740;28;20078;-49
2023/02/04 00:21:17;;;;;;;8.45;5.00;;;10.90;1.00;;;;;;5035490;28;20036;-48
2023/02/04 00:23:42;;;;;;;10.15;6.13;;;11.00;1.00;;;;;;5034399;28;20069;-48
2023/02/04 00:26:08;;;;;;;11.68;6.18;;;11.00;1.00;;;;;;5032076;28;20060;-48
2023/02/04 00:28:34;;;;;;;12.88;6.97;;;10.90;1.00;;;;;;5032742;28;20431;-46
2023/02/04 00:30:59;;;;;;;11.57;6.68;;;10.80;1.00;;;;;;5034331;28;20455;-47
2023/02/04 00:33:41;;;;;;;10.23;6.70;;;10.90;1.00;;;;;;5033114;28;20060;-46
2023/02/04 00:36:07;;;;;;;11.23;6.70;;;10.70;1.00;;;;;;5031382;28;20053;-46
2023/02/04 00:38:33;;;;;;;11.35;7.78;;;10.70;1.00;;;;;;5033195;28;20446;-46
2023/02/04 00:40:58;;;;;;;12.00;6.90;;;10.70;1.00;;;;;;5032741;28;20025;-47
2023/02/04 00:43:24;;;;;;;11.98;7.30;;;10.80;1.00;;;;;;5031787;28;20061;-47
2023/02/04 00:45:50;;;;;;;11.07;7.95;;;10.80;1.00;;;;;;5025992;28;20341;-47
2023/02/04 00:48:15;;;;;;;13.63;7.57;;;10.80;1.00;;;;;;5039171;28;20379;-48
2023/02/04 00:50:41;;;;;;;12.68;8.35;;;10.70;1.00;;;;;;5019764;28;20030;-48
2023/02/04 00:53:06;;;;;;;11.35;8.05;;;10.70;1.00;;;;;;5032375;28;20114;-47
2023/02/04 00:55:32;;;;;;;12.25;8.20;;;10.80;1.00;;;;;;5031374;28;20045;-47
2023/02/04 00:57:58;;;;;;;15.60;8.50;;;10.70;1.00;;;;;;5032539;28;20017;-47
2023/02/04 01:00:24;;;;;;;9.93;7.78;;;10.70;1.00;;;;;;5032594;28;20481;-49
2023/02/04 01:02:55;;;;;;;14.27;9.13;;;10.80;1.00;;;;;;5032409;28;20052;-46
2023/02/04 01:05:21;;;;;;;14.13;8.00;;;10.60;1.00;;;;;;5031618;28;20050;-50
2023/02/04 01:07:52;;;;;;;15.38;9.05;;;10.70;1.00;;;;;;5027298;28;20041;-52
2023/02/04 01:10:18;;;;;;;15.00;9.52;;;10.70;1.00;;;;;;5026395;28;20025;-51
2023/02/04 01:12:44;;;;;;;16.58;10.10;;;10.50;1.00;;;;;;5031714;28;20160;-52
2023/02/04 01:15:10;;;;;;;15.35;10.48;;;10.50;1.00;;;;;;5032353;28;20021;-51
2023/02/04 01:17:35;;;;;;;15.80;10.40;;;10.50;1.00;;;;;;5032241;28;20044;-53
2023/02/04 01:20:01;;;;;;;15.90;11.10;;;10.60;1.00;;;;;;5032300;28;20026;-52
2023/02/04 01:22:26;;;;;;;15.90;10.02;;;10.60;1.00;;;;;;5040243;28;20528;-52
2023/02/04 01:24:52;;;;;;;17.08;10.25;;;10.80;1.00;;;;;;5035889;28;20041;-48
2023/02/04 01:27:17;;;;;;;16.45;10.88;;;10.80;1.00;;;;;;5031525;28;20442;-49
2023/02/04 01:29:43;;;;;;;16.27;10.75;;;10.80;1.00;;;;;;5031864;28;20022;-46
2023/02/04 01:32:09;;;;;;;15.70;10.70;;;10.70;1.00;;;;;;5031672;28;20063;-49
2023/02/04 01:34:34;;;;;;;14.90;10.82;;;10.90;1.00;;;;;;5031354;28;20031;-51
2023/02/04 01:37:00;;;;;;;16.47;11.47;;;10.80;1.00;;;;;;5031920;28;20468;-50
2023/02/04 01:39:25;;;;;;;17.20;12.43;;;10.90;1.00;;;;;;5032009;28;20037;-49
2023/02/04 01:41:51;;;;;;;15.80;11.43;;;10.80;1.00;;;;;;5032076;28;20049;-49
2023/02/04 01:44:17;;;;;;;20.17;13.20;;;10.70;1.00;;;;;;5031463;28;20034;-50
2023/02/04 01:46:42;;;;;;;16.55;12.00;;;10.60;1.00;;;;;;5032041;28;20049;-48
2023/02/04 01:49:09;;;;;;;17.75;11.75;;;10.60;1.00;;;;;;5029733;28;20029;-48
2023/02/04 01:51:36;;;;;;;17.95;13.05;;;10.60;1.00;;;;;;5032093;28;20062;-48
2023/02/04 01:54:02;;;;;;;14.55;11.73;;;10.70;1.00;;;;;;5031653;28;20094;-52
2023/02/04 01:56:29;;;;;;;19.93;12.90;;;10.70;1.00;;;;;;5031841;28;20069;-47
2023/02/04 01:58:57;;;;;;;19.10;13.80;;;10.80;1.00;;;;;;5031916;28;20033;-47
2023/02/04 02:01:42;;;;;;;15.73;12.93;;;10.70;1.00;;;;;;5031602;28;20128;-47
2023/02/04 02:04:11;;;;;;;19.42;13.20;;;10.80;1.00;;;;;;5027029;28;20375;-47
2023/02/04 02:06:39;;;;;;;17.98;12.57;;;10.90;1.00;;;;;;5030794;28;20026;-48
2023/02/04 02:09:05;;;;;;;17.30;13.73;;;10.70;1.00;;;;;;5030962;28;20029;-47
2023/02/04 02:11:32;;;;;;;19.67;14.13;;;10.80;1.00;;;;;;5030113;28;20171;-51
2023/02/04 02:13:58;;;;;;;18.23;13.60;;;10.80;1.00;;;;;;5030572;28;20037;-49
2023/02/04 02:16:23;;;;;;;17.60;12.95;;;10.70;1.00;;;;;;5028676;28;20030;-49
2023/02/04 02:18:52;;;;;;;20.10;13.90;;;10.70;1.00;;;;;;5030599;28;20172;-47
2023/02/04 02:21:28;;;;;;;21.73;14.93;;;10.70;1.00;;;;;;5030775;28;20025;-51
2023/02/04 02:23:56;;;;;;;18.80;14.90;;;10.50;1.00;;;;;;5022612;28;20309;-47
2023/02/04 02:26:23;;;;;;;22.25;13.82;;;10.50;1.00;;;;;;5031399;28;20480;-49
2023/02/04 02:28:50;;;;;;;19.17;14.77;;;10.40;1.00;;;;;;5029955;28;20022;-52
2023/02/04 02:31:19;;;;;;;19.43;13.23;;;10.40;1.00;;;;;;5030371;28;20052;-51
2023/02/04 02:33:45;;;;;;;18.60;14.10;;;10.40;1.00;;;;;;5031490;28;20030;-51
2023/02/04 02:36:11;;;;;;;19.25;13.65;;;10.40;1.00;;;;;;5030190;28;20332;-49
2023/02/04 02:38:37;;;;;;;21.48;14.98;;;10.50;1.00;;;;;;5031211;28;20030;-51
2023/02/04 02:41:04;;;;;;;20.58;14.57;;;10.50;1.00;;;;;;5031358;28;20379;-49
2023/02/04 02:43:30;;;;;;;21.50;14.23;;;10.40;1.00;;;;;;5031059;28;20065;-50
2023/02/04 02:45:58;;;;;;;20.08;12.80;;;10.30;1.00;;;;;;5033247;28;20025;-48
2023/02/04 02:48:24;;;;;;;20.27;14.07;;;10.30;1.00;;;;;;5035058;28;20028;-49
2023/02/04 02:50:50;;;;;;;19.15;13.88;;;10.30;1.00;;;;;;5034305;28;20025;-52
2023/02/04 02:53:17;;;;;;;18.92;14.70;;;10.20;1.00;;;;;;5033197;28;20103;-50
2023/02/04 02:55:43;;;;;;;20.70;13.43;;;10.40;1.00;;;;;;5034821;28;20040;-49
2023/02/04 02:58:21;;;;;;;22.55;13.90;;;10.50;1.00;;;;;;5034841;28;20022;-50
2023/02/04 03:00:47;;;;;;;19.65;13.90;;;10.50;1.00;;;;;;5024809;28;20518;-47
2023/02/04 03:03:23;;;;;;;19.40;13.47;;;10.60;1.00;;;;;;5032138;28;20049;-47
2023/02/04 03:05:53;;;;;;;21.50;14.93;;;10.50;1.00;;;;;;5028597;28;20026;-47
2023/02/04 03:08:19;;;;;;;25.45;14.70;;;10.50;1.00;;;;;;5032251;28;20025;-50
2023/02/04 03:10:45;;;;;;;19.70;13.87;;;10.60;1.00;;;;;;5034339;28;20037;-47
2023/02/04 03:13:13;;;;;;;21.15;13.55;;;10.50;1.00;;;;;;5046976;28;20021;-49
2023/02/04 03:15:39;;;;;;;19.00;13.80;;;10.40;1.00;;;;;;5048132;28;20030;-46
2023/02/04 03:18:05;;;;;;;21.02;14.10;;;10.40;1.00;;;;;;5046584;28;20037;-47
2023/02/04 03:20:32;;;;;;;20.73;14.33;;;10.50;1.00;;;;;;5037958;28;20391;-48
2023/02/04 03:22:58;;;;;;;16.80;13.35;;;10.40;1.00;;;;;;5033909;28;20408;-48
2023/02/04 03:25:27;;;;;;;20.37;14.37;;;10.50;1.00;;;;;;5034299;28;20037;-47
2023/02/04 03:27:53;;;;;;;17.30;14.10;;;10.50;1.00;;;;;;5034827;28;20041;-48
2023/02/04 03:30:20;;;;;;;22.63;14.80;;;10.40;1.00;;;;;;5047952;28;20045;-49
2023/02/04 03:32:46;;;;;;;21.40;14.30;;;10.40;1.00;;;;;;5034616;28;20079;-48
2023/02/04 03:35:11;;;;;;;21.20;14.33;;;10.50;1.00;;;;;;5033754;28;20427;-47
2023/02/04 03:37:38;;;;;;;18.90;14.10;;;10.40;1.00;;;;;;5034566;28;20048;-49
2023/02/04 03:40:04;;;;;;;19.80;14.47;;;10.40;1.00;;;;;;5034203;28;20502;-48
2023/02/04 03:42:29;;;;;;;20.87;14.97;;;10.40;1.00;;;;;;5033842;28;20025;-48
2023/02/04 03:44:55;;;;;;;21.27;14.37;;;10.30;1.00;;;;;;5034412;28;20041;-48
2023/02/04 03:47:20;;;;;;;25.48;16.42;;;10.30;1.00;;;;;;5034132;28;20032;-48
2023/02/04 03:49:46;;;;;;;22.30;15.53;;;10.30;1.00;;;;;;5033963;28;20040;-46
2023/02/04 03:52:12;;;;;;;26.67;16.17;;;10.30;1.00;;;;;;5033160;28;20038;-48
2023/02/04 03:54:37;;;;;;;25.17;16.00;;;10.40;1.00;;;;;;5033826;28;20469;-46
2023/02/04 03:57:03;;;;;;;22.40;15.97;;;10.30;1.00;;;;;;5032407;28;20434;-50
2023/02/04 03:59:28;;;;;;;22.53;15.50;;;10.40;1.00;;;;;;5033979;28;20112;-49
2023/02/04 04:01:54;;;;;;;20.75;15.45;;;10.40;1.00;;;;;;5033292;28;20407;-48
2023/02/04 04:04:20;;;;;;;23.53;15.43;;;10.30;1.00;;;;;;5033764;28;20033;-47
2023/02/04 04:06:45;;;;;;;23.17;15.83;;;10.40;1.00;;;;;;5028479;28;20065;-47
2023/02/04 04:09:11;;;;;;;22.93;15.90;;;10.20;1.00;;;;;;5033548;28;20029;-46
2023/02/04 04:11:36;;;;;;;24.07;16.17;;;10.20;1.00;;;;;;5033859;28;20029;-47
2023/02/04 04:14:02;;;;;;;22.93;16.80;;;10.30;1.00;;;;;;5033009;28;20376;-48
2023/02/04 04:16:28;;;;;;;24.97;16.27;;;10.10;1.00;;;;;;5033527;28;20030;-49
2023/02/04 04:18:54;;;;;;;21.53;15.70;;;10.20;1.00;;;;;;5032888;28;20112;-50
2023/02/04 04:21:19;;;;;;;22.63;17.17;;;10.30;1.00;;;;;;5036081;28;20030;-47
2023/02/04 04:23:45;;;;;;;22.17;15.37;;;10.00;1.00;;;;;;5032933;28;20074;-50
2023/02/04 04:26:11;;;;;;;24.97;17.00;;;10.10;1.00;;;;;;5031862;28;20033;-47
2023/02/04 04:28:36;;;;;;;21.63;15.90;;;10.10;1.00;;;;;;5031294;28;20021;-50
2023/02/04 04:31:02;;;;;;;24.27;16.53;;;10.20;1.00;;;;;;5033193;28;20494;-47
2023/02/04 04:33:27;;;;;;;21.23;15.60;;;10.30;1.00;;;;;;5032892;28;20028;-47
2023/02/04 04:35:53;;;;;;;18.87;15.17;;;10.20;1.00;;;;;;5028935;28;20436;-50
2023/02/04 04:38:19;;;;;;;24.20;15.48;;;10.30;1.00;;;;;;5027733;28;20063;-47
2023/02/04 04:40:45;;;;;;;20.90;16.33;;;10.30;1.00;;;;;;5020554;28;20506;-52
2023/02/04 04:43:11;;;;;;;21.13;15.80;;;10.30;1.00;;;;;;5032742;28;20083;-48
2023/02/04 04:45:48;;;;;;;23.00;16.50;;;10.30;1.00;;;;;;5047984;28;20025;-47
2023/02/04 04:48:14;;;;;;;25.37;17.33;;;10.20;1.00;;;;;;5032298;28;20018;-47
2023/02/04 04:50:40;;;;;;;25.03;17.53;;;10.10;1.00;;;;;;5032717;28;20024;-47
2023/02/04 04:53:09;;;;;;;23.93;17.20;;;10.00;1.00;;;;;;5032126;28;20025;-47
2023/02/04 04:55:36;;;;;;;22.57;16.40;;;10.10;1.00;;;;;;5032624;28;20020;-46
2023/02/04 04:58:02;;;;;;;25.10;17.03;;;10.00;1.00;;;;;;5032354;28;20013;-47
2023/02/04 05:00:27;;;;;;;21.53;16.00;;;10.00;1.00;;;;;;5032657;28;20501;-48
2023/02/04 05:02:53;;;;;;;26.03;16.63;;;10.00;1.00;;;;;;5031908;28;20568;-48
2023/02/04 05:05:18;;;;;;;24.40;15.57;;;9.80;1.00;;;;;;5032750;28;20036;-48
2023/02/04 05:07:44;;;;;;;24.00;15.67;;;9.80;1.00;;;;;;5032072;28;20403;-47
2023/02/04 05:10:09;;;;;;;25.67;16.70;;;9.90;1.00;;;;;;5032803;28;20030;-47
2023/02/04 05:12:35;;;;;;;23.50;16.97;;;10.00;1.00;;;;;;5031609;28;20383;-49
2023/02/04 05:15:02;;;;;;;22.57;16.93;;;10.00;1.00;;;;;;5032307;28;20080;-48
2023/02/04 05:17:28;;;;;;;24.43;17.03;;;10.10;1.00;;;;;;5032133;28;20025;-46
2023/02/04 05:19:53;;;;;;;22.93;16.47;;;9.90;1.00;;;;;;5036657;28;20033;-46
2023/02/04 05:22:19;;;;;;;25.67;17.10;;;9.80;1.00;;;;;;5037893;28;20022;-47
2023/02/04 05:24:45;;;;;;;32.63;19.37;;;9.90;1.00;;;;;;5031909;28;20037;-46
2023/02/04 05:27:10;;;;;;;25.20;17.27;;;9.90;1.00;;;;;;5031855;28;20061;-47
2023/02/04 05:29:36;;;;;;;23.00;16.67;;;9.90;1.00;;;;;;5032126;28;20035;-48
2023/02/04 05:32:01;;;;;;;24.53;16.93;;;9.90;1.00;;;;;;5032103;28;20029;-47
2023/02/04 05:34:27;;;;;;;29.30;17.40;;;9.60;1.00;;;;;;5024091;28;20383;-46
2023/02/04 05:36:53;;;;;;;21.40;15.67;;;9.60;1.00;;;;;;5030668;28;20033;-46
2023/02/04 05:39:18;;;;;;;28.13;16.53;;;9.70;1.00;;;;;;5032195;28;20411;-48
2023/02/04 05:41:44;;;;;;;24.93;16.90;;;9.80;1.00;;;;;;5031352;28;20034;-47
2023/02/04 05:44:09;;;;;;;23.93;17.23;;;9.80;1.00;;;;;;5029963;28;20029;-47
2023/02/04 05:46:36;;;;;;;20.80;14.87;;;9.60;1.00;;;;;;5030327;28;20036;-47
2023/02/04 05:49:01;;;;;;;24.10;17.30;;;9.60;1.00;;;;;;5018425;28;20022;-48
2023/02/04 05:51:27;;;;;;;26.27;17.63;;;9.60;1.00;;;;;;5026502;28;20041;-47
2023/02/04 05:54:07;;;;;;;25.00;17.57;;;9.60;1.00;;;;;;5031502;28;20059;-46
2023/02/04 05:56:33;;;;;;;24.17;18.03;;;9.60;1.00;;;;;;5031952;28;20387;-49
2023/02/04 05:58:59;;;;;;;27.20;18.73;;;9.50;1.00;;;;;;5031799;28;20018;-46
2023/02/04 06:01:24;;;;;;;25.10;17.33;;;9.60;1.00;;;;;;5031296;28;20128;-46
2023/02/04 06:03:50;;;;;;;26.23;17.63;;;9.60;1.00;;;;;;5032030;28;20030;-47
2023/02/04 06:06:15;;;;;;;26.53;17.53;;;9.50;1.00;;;;;;5031200;28;20394;-47
2023/02/04 06:08:41;;;;;;;26.00;18.27;;;9.60;1.00;;;;;;5032098;28;20083;-47
2023/02/04 06:11:07;;;;;;;23.20;16.80;;;9.60;1.00;;;;;;5031691;28;20028;-47
2023/02/04 06:13:32;;;;;;;24.00;17.50;;;9.50;1.00;;;;;;5031418;28;20042;-51
2023/02/04 06:15:58;;;;;;;21.93;16.63;;;9.40;1.00;;;;;;5024072;28;20372;-48
2023/02/04 06:18:23;;;;;;;25.13;17.80;;;9.40;1.00;;;;;;5031004;28;20068;-49
2023/02/04 06:20:49;;;;;;;21.53;17.47;;;9.50;1.00;;;;;;5045237;28;20072;-48
2023/02/04 06:23:14;;;;;;;24.27;16.80;;;9.50;1.00;;;;;;5037287;28;20124;-47
2023/02/04 06:25:40;;;;;;;25.07;17.37;;;9.60;1.00;;;;;;5035188;28;20442;-47
2023/02/04 06:28:06;;;;;;;26.33;17.93;;;9.40;1.00;;;;;;5035457;28;20024;-48
2023/02/04 06:30:32;;;;;;;22.10;16.87;;;9.60;1.00;;;;;;5033895;28;20120;-50
2023/02/04 06:32:57;;;;;;;21.77;16.97;;;9.40;1.00;;;;;;5035284;28;20499;-49
2023/02/04 06:35:23;;;;;;;30.37;17.60;;;9.40;1.00;;;;;;5034907;28;20021;-47
2023/02/04 06:37:48;;;;;;;22.70;17.10;;;9.20;1.00;;;;;;5035339;28;20364;-49
2023/02/04 06:40:14;;;;;;;25.93;18.17;;;9.40;1.00;;;;;;5035245;28;20062;-47
2023/02/04 06:42:40;;;;;;;24.00;16.77;;;9.50;1.00;;;;;;5027448;28;20030;-48
2023/02/04 06:45:06;;;;;;;35.30;17.43;;;9.50;1.00;;;;;;5030434;28;20037;-48
2023/02/04 06:47:31;;;;;;;26.13;17.47;;;9.30;1.00;;;;;;5034938;28;20026;-45
2023/02/04 06:49:57;;;;;;;23.37;17.57;;;9.40;1.00;;;;;;5035114;28;20029;-47
2023/02/04 06:52:22;;;;;;;22.63;16.27;;;9.40;1.00;;;;;;5035054;28;20029;-47
2023/02/04 06:54:49;;;;;;;21.13;16.07;;;9.40;1.00;;;;;;5035192;28;20467;-47
2023/02/04 06:57:15;;;;;;;23.30;15.57;;;9.40;1.00;;;;;;5034601;28;20435;-48
2023/02/04 06:59:42;;;;;;;24.87;17.13;;;9.40;1.00;;;;;;5035149;28;20072;-48
2023/02/04 07:02:11;;;;;;;23.47;15.33;;;9.40;1.00;;;;;;5032885;28;20059;-47
2023/02/04 07:04:36;;;;;;;24.60;17.03;;;9.40;1.00;;;;;;5034866;28;20083;-47
2023/02/04 07:07:02;;;;;;;23.63;16.63;;;9.40;1.00;;;;;;5034183;28;20025;-47
2023/02/04 07:09:27;;;;;;;24.70;16.60;;;9.50;1.00;;;;;;5035029;28;20041;-47
2023/02/04 07:11:53;;;;;;;23.30;15.63;;;9.50;1.00;;;;;;5032665;28;20075;-47
2023/02/04 07:14:19;;;;;;;24.63;16.30;;;9.60;1.00;;;;;;5033698;28;20021;-49
2023/02/04 07:16:45;;;;;;;21.30;15.90;;;9.50;1.00;;;;;;5034426;28;20028;-50
2023/02/04 07:19:10;;;;;;;24.20;16.30;;;9.40;1.00;;;;;;5034386;28;20052;-48
2023/02/04 07:21:36;;;;;;;22.97;17.10;;;9.30;1.00;;;;;;5034676;28;20468;-47
2023/02/04 07:24:02;;;;;;;22.73;16.27;;;9.50;1.00;;;;;;5034982;28;20067;-51
2023/02/04 07:26:27;;;;;;;24.10;16.37;;;9.40;1.00;;;;;;5032448;28;20064;-48
2023/02/04 07:28:53;;;;;;;23.27;17.23;;;9.50;1.00;;;;;;5034412;28;20029;-47
2023/02/04 07:31:19;;;;;;;20.67;15.93;;;9.20;1.00;;;;;;5033904;28;20033;-46
2023/02/04 07:33:44;;;;;;;20.97;14.73;;;9.30;1.00;;;;;;5034465;28;20022;-47
2023/02/04 07:36:10;;;;;;;21.27;15.63;;;9.50;1.00;;;;;;5034534;28;20033;-47
2023/02/04 07:38:35;;;;;;;22.13;16.27;;;9.60;1.00;;;;;;5033727;28;20029;-47
2023/02/04 07:41:01;;;;;;;23.23;16.50;;;9.60;1.00;;;;;;5024577;28;20029;-48
2023/02/04 07:43:26;;;;;;;25.30;16.73;;;9.50;1.00;;;;;;5028427;28;20048;-47
2023/02/04 07:45:52;;;;;;;24.07;16.47;;;9.60;1.00;;;;;;5033949;28;20033;-51
2023/02/04 07:48:18;;;;;;;27.13;16.27;;;9.40;1.00;;;;;;5027472;28;20087;-49
2023/02/04 07:50:43;;;;;;;22.67;17.13;;;9.50;1.00;;;;;;5033585;28;20033;-47
2023/02/04 07:53:09;;;;;;;26.70;15.70;;;9.50;1.00;;;;;;5034098;28;20022;-48
2023/02/04 07:55:35;;;;;;;25.17;16.57;;;9.50;1.00;;;;;;5033481;28;20030;-48
2023/02/04 07:58:00;;;;;;;25.00;16.30;;;9.50;1.00;;;;;;5033953;28;20029;-47
2023/02/04 08:00:26;;;;;;;23.77;15.80;;;9.50;1.00;;;;;;5033863;28;20057;-47
2023/02/04 08:02:51;;;;;;;27.17;16.30;;;9.70;1.00;;;;;;5033424;28;20081;-47
2023/02/04 08:05:17;;;;;;;24.17;16.97;;;9.60;1.00;;;;;;5033668;28;20080;-48
2023/02/04 08:07:43;;;;;;;22.43;16.63;;;9.60;1.00;;;;;;5031799;28;20036;-48
2023/02/04 08:10:09;;;;;;;25.67;16.47;;;9.70;1.00;;;;;;5015262;28;20432;-50
2023/02/04 08:12:36;;;;;;;23.93;16.00;;;9.70;1.00;;;;;;5033293;28;20080;-49
2023/02/04 08:15:01;;;;;;;26.23;17.27;;;9.80;1.00;;;;;;5033222;28;20356;-48
2023/02/04 08:17:27;;;;;;;23.93;16.80;;;9.70;1.00;;;;;;5033628;28;20104;-48
2023/02/04 08:19:53;;;;;;;29.73;18.37;;;9.90;1.00;;;;;;5029104;28;20482;-48
2023/02/04 08:22:19;;;;;;;24.63;17.03;;;9.80;1.00;;;;;;5029547;28;20032;-47
2023/02/04 08:24:44;;;;;;;23.33;16.30;;;9.80;1.00;;;;;;5032824;28;20057;-47
2023/02/04 08:27:10;;;;;;;21.07;16.43;;;9.70;1.00;;;;;;5031237;28;20022;-48
2023/02/04 08:29:36;;;;;;;24.07;17.57;;;9.70;1.00;;;;;;5032963;28;20025;-49
2023/02/04 08:32:02;;;;;;;23.17;18.00;;;9.90;1.00;;;;;;5031468;28;20436;-48
2023/02/04 08:34:28;;;;;;;27.60;17.63;;;9.90;1.00;;;;;;5032940;28;20052;-48
2023/02/04 08:36:54;;;;;;;20.07;15.83;;;9.90;1.00;;;;;;5032475;28;20049;-47
2023/02/04 08:39:19;;;;;;;24.20;17.43;;;10.00;1.00;;;;;;5033067;28;20030;-49
2023/02/04 08:41:45;;;;;;;22.77;17.43;;;10.10;1.00;;;;;;5032344;28;20505;-49
2023/02/04 08:44:11;;;;;;;21.20;17.03;;;10.10;1.00;;;;;;5032415;28;20455;-49
2023/02/04 08:46:36;;;;;;;23.43;18.10;;;10.10;1.00;;;;;;5032308;28;20463;-47
2023/02/04 08:49:02;;;;;;;24.23;16.80;;;10.20;1.00;;;;;;5032551;28;20040;-48
2023/02/04 08:51:28;;;;;;;21.10;16.93;;;10.20;1.00;;;;;;5032186;28;20474;-50
2023/02/04 08:53:54;;;;;;;25.63;16.83;;;10.20;1.00;;;;;;5031980;28;20018;-48
2023/02/04 08:56:19;;;;;;;25.93;17.53;;;10.30;1.00;;;;;;5032016;28;20083;-47
2023/02/04 08:58:47;;;;;;;24.90;17.85;;;10.30;1.00;;;;;;5030403;28;20475;-46
2023/02/04 09:01:13;;;;;;;24.73;18.33;;;10.30;1.00;;;;;;5032088;28;20033;-48
2023/02/04 09:03:39;;;;;;;23.97;16.77;;;10.40;1.00;;;;;;5031759;28;20487;-46
2023/02/04 09:06:06;;;;;;;21.80;16.40;;;10.50;1.00;;;;;;5031622;28;20051;-49
2023/02/04 09:08:32;;;;;;;23.83;16.63;;;10.60;1.00;;;;;;5032135;28;20025;-52
2023/02/04 09:10:58;;;;;;;22.27;17.73;;;10.60;1.00;;;;;;5030075;28;20017;-48
2023/02/04 09:13:24;;;;;;;24.52;16.80;;;10.70;1.00;;;;;;5032059;28;20040;-50
2023/02/04 09:15:51;;;;;;;25.02;17.50;;;10.70;1.00;;;;;;5031641;28;20025;-46
2023/02/04 09:18:20;;;;;;;24.55;16.95;;;10.80;1.00;;;;;;5032591;28;20040;-49
2023/02/04 09:20:47;;;;;;;23.88;16.90;;;10.80;1.00;;;;;;5033868;28;20459;-48
2023/02/04 09:23:13;;;;;;;21.08;16.55;;;10.80;1.00;;;;;;5031991;28;20065;-51
2023/02/04 09:25:40;;;;;;;23.45;16.35;;;10.90;1.00;;;;;;5031585;28;20116;-47
2023/02/04 09:28:08;;;;;;;19.13;14.50;;;11.00;1.00;;;;;;5031741;28;20554;-48
2023/02/04 09:30:34;;;;;;;20.90;15.75;;;11.10;1.00;;;;;;5031503;28;20478;-50
2023/02/04 09:33:00;;;;;;;22.15;15.57;;;11.10;1.00;;;;;;5031583;28;20025;-47
2023/02/04 09:35:26;;;;;;;19.38;14.90;;;11.20;1.00;;;;;;5030867;28;20097;-48
2023/02/04 09:37:52;;;;;;;20.17;16.20;;;11.30;1.00;;;;;;5021781;28;20498;-48
2023/02/04 09:40:19;;;;;;;21.52;15.40;;;11.40;1.00;;;;;;5019315;28;20021;-46
2023/02/04 09:42:48;;;;;;;20.35;14.02;;;11.50;1.00;;;;;;5031201;28;20021;-47
2023/02/04 09:45:21;;;;;;;20.70;14.60;;;11.60;1.00;;;;;;5029772;28;20140;-46
2023/02/04 09:47:47;;;;;;;17.30;13.65;;;11.60;1.00;;;;;;5031659;28;20143;-47
2023/02/04 09:50:17;;;;;;;19.73;13.55;;;11.70;1.00;;;;;;5030795;28;20034;-47
2023/02/04 09:52:45;;;;;;;17.50;12.07;;;11.80;1.00;;;;;;5031656;28;20404;-49
2023/02/04 09:55:16;;;;;;;77.90;15.85;;;12.00;1.00;;;;;;5031894;28;20017;-47
2023/02/04 09:57:42;;;;;;;16.27;11.00;;;12.10;1.00;;;;;;5035321;28;20506;-50
2023/02/04 10:00:15;;;;;;;14.25;10.15;;;12.40;1.00;;;;;;5034008;28;20056;-48
2023/02/04 10:02:42;;;;;;;11.77;9.23;;;12.40;1.00;;;;;;5021931;28;20037;-48
2023/02/04 10:05:15;;;;;;;13.73;8.93;;;12.70;1.00;;;;;;5035142;28;20065;-48
2023/02/04 10:07:42;;;;;;;14.57;10.68;;;12.80;1.00;;;;;;5035421;28;20022;-47
2023/02/04 10:10:19;;;;;;;21.73;10.88;;;12.90;1.00;;;;;;5035004;28;20025;-48
2023/02/04 10:12:46;;;;;;;9.43;7.15;;;13.00;1.00;;;;;;5035127;28;20026;-47
2023/02/04 10:15:14;;;;;;;8.95;3.70;;;13.00;1.00;;;;;;5034938;28;20096;-51
2023/02/04 10:17:41;;;;;;;5.60;2.17;;;13.60;1.00;;;;;;5033870;28;20045;-49
2023/02/04 10:20:18;;;;;;;4.05;2.03;;;14.20;1.00;;;;;;5030007;28;20083;-48
2023/02/04 10:22:50;;;;;;;5.40;0.90;;;14.60;1.00;;;;;;5020510;28;20037;-46
2023/02/04 10:25:18;;;;;;;3.83;0.90;;;14.90;1.00;;;;;;5034974;28;20048;-47
2023/02/04 10:27:51;;;;;;;1.20;0.50;;;14.80;1.00;;;;;;5034966;28;20037;-47
2023/02/04 10:30:26;;;;;;;2.93;0.40;;;15.00;1.00;;;;;;5035230;28;20029;-47
2023/02/04 10:32:52;;;;;;;1.35;0.50;;;15.40;1.00;;;;;;5035068;28;20468;-47
2023/02/04 10:35:20;;;;;;;2.90;0.32;;;15.20;1.00;;;;;;5034496;28;20471;-48
2023/02/04 10:37:46;;;;;;;2.88;0.28;;;15.70;1.00;;;;;;5020993;28;20162;-48
2023/02/04 10:40:33;;;;;;;2.47;0.40;;;16.00;1.00;;;;;;5034670;28;20388;-47
2023/02/04 10:42:59;;;;;;;3.88;0.55;;;15.90;1.00;;;;;;5038508;28;20021;-47
2023/02/04 10:45:29;;;;;;;2.92;0.25;;;16.00;1.00;;;;;;5041507;28;20431;-47
2023/02/04 10:47:56;;;;;;;3.22;0.50;;;16.40;1.00;;;;;;5027615;28;20021;-47
2023/02/04 10:50:24;;;;;;;2.08;0.40;;;16.50;1.00;;;;;;5034498;28;20044;-49
2023/02/04 10:54:28;;;;;;;1.52;0.30;;;16.60;1.00;;;;;;5035010;28;20033;-51
2023/02/04 10:55:45;;;;;;;2.65;0.50;;;16.20;1.00;;;;;;5034079;28;20025;-58
2023/02/04 10:58:27;;;;;;;4.25;0.57;;;16.20;1.00;;;;;;5034928;28;20040;-52
2023/02/04 11:00:53;;;;;;;4.55;0.35;;;16.50;1.00;;;;;;5034817;28;20394;-48
2023/02/04 11:03:23;;;;;;;2.60;0.15;;;16.30;1.00;;;;;;5033968;28;20056;-47
2023/02/04 11:05:49;;;;;;;1.33;0.10;;;16.20;1.00;;;;;;5034099;28;20483;-47
2023/02/04 11:08:21;;;;;;;0.15;0.10;;;16.60;1.00;;;;;;5034127;28;20029;-47
2023/02/04 11:10:51;;;;;;;6.85;0.20;;;17.10;1.00;;;;;;5034388;28;20022;-47
2023/02/04 11:13:39;;;;;;;1.55;0.22;;;16.80;1.00;;;;;;5034291;28;20022;-48
2023/02/04 11:16:16;;;;;;;0.30;0.20;;;16.60;1.00;;;;;;5033864;28;20056;-49
2023/02/04 11:18:45;;;;;;;1.13;0.30;;;16.50;1.00;;;;;;5027624;28;20029;-50
2023/02/04 11:21:25;;;;;;;3.28;0.50;;;16.60;1.00;;;;;;5033940;28;20034;-50
2023/02/04 11:24:11;;;;;;;1.15;0.25;;;16.80;1.00;;;;;;5032842;28;20065;-52
2023/02/04 11:26:44;;;;;;;0.93;0.77;;;16.80;1.00;;;;;;5031218;28;20026;-49
2023/02/04 11:29:36;;;;;;;1.23;0.55;;;16.80;1.00;;;;;;5028731;28;20505;-49
2023/02/04 11:32:09;;;;;;;5.43;0.40;;;17.60;1.00;;;;;;5033745;28;20024;-51
2023/02/04 11:34:48;;;;;;;2.75;1.00;;;17.80;1.00;;;;;;5033830;28;20105;-47
2023/02/04 11:37:28;;;;;;;2.58;0.35;;;17.40;1.00;;;;;;5033722;28;20037;-51
2023/02/04 11:39:59;;;;;;;1.60;1.45;;;17.50;1.00;;;;;;5033419;28;20017;-52
2023/02/04 11:42:41;;;;;;;1.10;0.15;;;17.10;1.00;;;;;;5033385;28;20036;-49
2023/02/04 11:45:18;;;;;;;6.38;0.98;;;17.40;1.00;;;;;;5033664;28;20032;-53
2023/02/04 11:47:45;;;;;;;2.95;0.40;;;17.40;1.00;;;;;;5033400;28;20034;-49
2023/02/04 11:50:24;;;;;;;4.00;0.38;;;17.40;1.00;;;;;;5033685;28;20041;-48
2023/02/04 11:52:53;;;;;;;2.15;0.47;;;17.30;1.00;;;;;;5029153;28;20072;-49
2023/02/04 11:55:18;;;;;;;1.30;0.40;;;17.60;1.00;;;;;;5033946;28;20029;-53
2023/02/04 11:57:45;;;;;;;1.42;0.77;;;17.50;1.00;;;;;;5028550;28;20026;-53
2023/02/04 12:00:23;;;;;;;0.70;0.43;;;17.20;1.00;;;;;;5024226;28;20021;-53
2023/02/04 12:03:10;;;;;;;2.13;0.70;;;17.60;1.00;;;;;;5027266;28;20081;-51
2023/02/04 12:05:46;;;;;;;0.40;0.20;;;17.30;1.00;;;;;;5032368;28;20075;-50
2023/02/04 12:08:33;;;;;;;0.77;0.47;;;17.30;1.00;;;;;;5032494;28;20021;-52
2023/02/04 12:11:01;;;;;;;0.20;0.20;;;17.20;1.00;;;;;;5033168;28;20360;-49
2023/02/04 12:13:27;;;;;;;1.23;0.10;;;17.30;1.00;;;;;;5033598;28;20037;-52
2023/02/04 12:16:04;;;;;;;1.27;0.40;;;17.60;1.00;;;;;;5033186;28;20198;-52
2023/02/04 12:18:31;;;;;;;3.00;0.40;;;17.30;1.00;;;;;;5031640;28;20041;-52
2023/02/04 12:20:58;;;;;;;0.65;0.20;;;17.50;1.00;;;;;;5032791;28;20356;-48
2023/02/04 12:23:25;;;;;;;0.50;0.10;;;17.30;1.00;;;;;;5032804;28;20033;-53
2023/02/04 12:25:51;;;;;;;0.52;0.32;;;17.10;1.00;;;;;;5032201;28;20475;-49
2023/02/04 12:28:17;;;;;;;1.92;0.30;;;17.20;1.00;;;;;;5033036;28;20028;-52
2023/02/04 12:30:43;;;;;;;0.52;0.30;;;17.20;1.00;;;;;;5032528;28;20033;-52
2023/02/04 12:33:09;;;;;;;1.40;0.38;;;17.40;1.00;;;;;;5032896;28;20383;-53
2023/02/04 12:35:34;;;;;;;2.00;0.70;;;17.20;1.00;;;;;;5031122;28;20390;-48
2023/02/04 12:38:00;;;;;;;1.98;0.50;;;17.30;1.00;;;;;;5032909;28;20021;-50
2023/02/04 12:40:26;;;;;;;1.38;0.30;;;17.50;1.00;;;;;;5032536;28;20049;-52
2023/02/04 12:42:52;;;;;;;1.08;0.28;;;17.50;1.00;;;;;;5032850;28;20112;-53
2023/02/04 12:45:18;;;;;;;1.30;0.38;;;17.40;1.00;;;;;;5030287;28;20128;-48
2023/02/04 12:47:49;;;;;;;1.05;0.35;;;17.50;1.00;;;;;;5030774;28;20028;-50